Terminal Aerodrome Forecast
Issued by NWS Anchorage, AK

Home | Current Version | Previous Version | Text Only | Print | Product List | Glossary On
Versions: 1 2 3 4 5 6 7 8 9 10 11 12 13 14 15 16 17 18 19 20 21 22 23 24 25 26 27 28 29 30 31 32 33 34 35 36 37 38 39 40 41 42 43 44 45 46 47 48 49 50
000
FTAK31 PANC 121720
TAFANC
TAF
PANC 121720Z 1218/1324 34006KT P6SM FEW070 OVC150 WS020/12030KT
     FM130100 14012G20KT P6SM BKN070
     FM130700 34005KT P6SM SCT070 BKN100 WS020/12040KT
     FM131600 33008KT P6SM VCSH SCT045 BKN060
     FM132300 15016G26KT P6SM SCT050 BKN080=

USA.gov is the U.S. government's official web portal to all federal, state and local government web resources and services.